This is the latest recevied weather packets stored in our database for station/object N4QD-13. If no packets are shown the sender has not sent any weather packets the latest 1 day(s).
| Time | Temp. | Humidity | Pressure | Rain* | Wind** | Luminosity | Snow |
|---|---|---|---|---|---|---|---|
| 1778005062 | 26.67° C | 38% | 1012.4 hPa | 0 mm | 3.13 m/s, 42° | 732 W/m² | - |
| 1778004760 | 27.22° C | 38% | 1012.5 hPa | 0 mm | 4.47 m/s, 34° | 681 W/m² | - |
| 1778004457 | 26.67° C | 37% | 1012.6 hPa | 0 mm | 4.02 m/s, 338° | 698 W/m² | - |
| 1778004153 | 26.67° C | 37% | 1012.6 hPa | 0 mm | 2.24 m/s, 32° | 720 W/m² | - |
| 1778003850 | 26.67° C | 38% | 1012.9 hPa | 0 mm | 2.68 m/s, 75° | 706 W/m² | - |
| 1778003546 | 26.67° C | 39% | 1013 hPa | 0 mm | 0.89 m/s, 63° | 728 W/m² | - |
| 1778003243 | 26.11° C | 37% | 1012.9 hPa | 0 mm | 3.13 m/s, 336° | 750 W/m² | - |
| 1778002940 | 26.11° C | 39% | 1012.9 hPa | 0 mm | 1.79 m/s, 108° | 726 W/m² | - |
| 1778002636 | 26.11° C | 38% | 1013 hPa | 0 mm | 3.13 m/s, 99° | 740 W/m² | - |
| 1778002333 | 26.11° C | 42% | 1013.3 hPa | 0 mm | 1.79 m/s, 320° | 693 W/m² | - |
| 1778002030 | 26.11° C | 39% | 1012.9 hPa | 0 mm | 3.58 m/s, 63° | 704 W/m² | - |
| 1778001727 | 26.11° C | 40% | 1013 hPa | 0 mm | 2.24 m/s, 337° | 694 W/m² | - |
| 1778001427 | 26.11° C | 41% | 1013.1 hPa | 0 mm | 3.13 m/s, 54° | 704 W/m² | - |
| 1778001124 | 25.56° C | 40% | 1013.3 hPa | 0 mm | 3.58 m/s, 27° | 707 W/m² | - |
| 1778000821 | 25.56° C | 43% | 1013.4 hPa | 0 mm | 2.68 m/s, 76° | 719 W/m² | - |
| 1778000517 | 25.56° C | 43% | 1013.2 hPa | 0 mm | 1.34 m/s, 348° | 668 W/m² | - |
| 1778000228 | 25.56° C | 42% | 1013.2 hPa | 0 mm | 2.68 m/s, 96° | 713 W/m² | - |
| 1777999914 | 25.56° C | 42% | 1013.6 hPa | 0 mm | 2.68 m/s, 343° | 701 W/m² | - |
| 1777999609 | 25.56° C | 42% | 1013.3 hPa | 0 mm | 2.68 m/s, 275° | 701 W/m² | - |
| 1777999307 | 25.56° C | 41% | 1013.5 hPa | 0 mm | 4.02 m/s, 319° | 717 W/m² | - |
| 1777999005 | 25° C | 44% | 1013.5 hPa | 0 mm | 2.24 m/s, 91° | 691 W/m² | - |
| 1777998703 | 25° C | 43% | 1013.7 hPa | 0 mm | 1.79 m/s, 28° | 707 W/m² | - |
| 1777998400 | 24.44° C | 42% | 1013.8 hPa | 0 mm | 2.68 m/s, 24° | 615 W/m² | - |
| 1777998098 | 25° C | 43% | 1013.8 hPa | 0 mm | 1.79 m/s, 302° | 550 W/m² | - |
| 1777997795 | 25° C | 45% | 1013.6 hPa | 0 mm | 1.34 m/s, 303° | 737 W/m² | - |
* Rain latest hour (hover to see other rain measurements)
** Current wind speed in m/s (hover to see current wind gust speed)